createdAt,value
2022-09-12T00:00:28.836Z,19.80
2022-09-12T00:02:55.846Z,20.35
2022-09-12T00:05:22.690Z,22.00
2022-09-12T00:07:49.766Z,18.45
2022-09-12T00:10:16.793Z,22.33
2022-09-12T00:12:44.935Z,19.67
2022-09-12T00:15:11.967Z,18.45
2022-09-12T00:17:39.036Z,21.50
2022-09-12T00:20:08.647Z,21.30
2022-09-12T00:22:37.288Z,20.38
2022-09-12T00:25:04.879Z,21.05
2022-09-12T00:27:31.583Z,23.42
2022-09-12T00:29:59.647Z,19.25
2022-09-12T00:32:26.445Z,22.92
2022-09-12T00:34:53.111Z,21.52
2022-09-12T00:37:19.846Z,20.63
2022-09-12T00:39:46.690Z,20.95
2022-09-12T00:42:13.418Z,19.52
2022-09-12T00:44:46.645Z,20.40
2022-09-12T00:47:19.288Z,20.88
2022-09-12T00:49:49.676Z,21.80
2022-09-12T00:52:20.988Z,22.85
2022-09-12T00:54:50.175Z,24.35
2022-09-12T00:57:18.381Z,23.73
2022-09-12T00:59:47.941Z,23.92
2022-09-12T01:02:16.839Z,22.38
2022-09-12T01:04:44.636Z,25.17
2022-09-12T01:07:12.017Z,22.98
2022-09-12T01:09:39.320Z,24.52
2022-09-12T01:12:06.293Z,24.17
2022-09-12T01:14:33.110Z,24.80
2022-09-12T01:16:59.793Z,22.23
2022-09-12T01:19:51.366Z,22.80
2022-09-12T01:22:28.690Z,24.40
2022-09-12T01:25:02.194Z,26.05
2022-09-12T01:27:41.015Z,24.48
2022-09-12T01:30:40.262Z,23.17
2022-09-12T01:33:25.324Z,22.50
2022-09-12T01:36:01.714Z,22.80
2022-09-12T01:38:31.801Z,22.40
2022-09-12T01:41:02.642Z,24.80
2022-09-12T01:43:33.050Z,25.23
2022-09-12T01:46:03.692Z,25.80
2022-09-12T01:48:35.909Z,24.48
2022-09-12T01:51:07.773Z,27.35
2022-09-12T01:53:38.610Z,25.50
2022-09-12T01:56:08.948Z,24.75
2022-09-12T01:58:39.902Z,23.45
2022-09-12T02:01:10.617Z,26.98
2022-09-12T02:03:44.737Z,23.83
2022-09-12T02:06:16.703Z,23.55
2022-09-12T02:08:45.675Z,23.75
2022-09-12T02:11:13.214Z,28.70
2022-09-12T02:13:42.259Z,26.20
2022-09-12T02:16:12.926Z,27.33
2022-09-12T02:18:45.312Z,21.70
2022-09-12T02:21:12.294Z,28.75
2022-09-12T02:23:41.720Z,29.33
2022-09-12T02:26:12.526Z,27.45
2022-09-12T02:28:41.830Z,24.45
2022-09-12T02:31:14.436Z,26.45
2022-09-12T02:33:49.362Z,24.90
2022-09-12T02:36:25.752Z,25.83
2022-09-12T02:38:53.095Z,25.23
2022-09-12T02:41:20.892Z,28.02
2022-09-12T02:43:49.325Z,24.80
2022-09-12T02:46:19.854Z,26.92
2022-09-12T02:48:47.922Z,26.42
2022-09-12T02:51:14.954Z,22.45
2022-09-12T02:53:42.056Z,26.27
2022-09-12T02:56:17.356Z,26.83
2022-09-12T02:58:44.481Z,24.02
2022-09-12T03:01:14.974Z,25.55
2022-09-12T03:03:58.647Z,26.02
2022-09-12T03:06:31.050Z,25.83
2022-09-12T03:09:01.460Z,26.50
2022-09-12T03:11:39.153Z,29.58
2022-09-12T03:14:16.062Z,27.30
2022-09-12T03:16:47.237Z,29.73
2022-09-12T03:19:21.829Z,27.98
2022-09-12T03:21:55.335Z,26.73
2022-09-12T03:24:26.547Z,28.65
2022-09-12T03:26:55.860Z,30.95
2022-09-12T03:29:23.141Z,25.75
2022-09-12T03:31:52.102Z,26.85
2022-09-12T03:34:21.234Z,27.52
2022-09-12T03:36:48.642Z,26.08
2022-09-12T03:39:15.345Z,25.80
2022-09-12T03:41:42.024Z,24.33
2022-09-12T03:44:08.902Z,28.48
2022-09-12T03:46:35.927Z,27.20
2022-09-12T03:49:02.611Z,27.80
2022-09-12T03:51:31.063Z,28.85
2022-09-12T03:53:57.764Z,25.33
2022-09-12T03:56:24.654Z,30.85
2022-09-12T03:58:51.346Z,26.90
2022-09-12T04:01:19.370Z,26.98
2022-09-12T04:03:48.508Z,25.52
2022-09-12T04:06:17.104Z,28.98
2022-09-12T04:08:48.248Z,25.27
2022-09-12T04:11:15.837Z,28.92
2022-09-12T04:13:43.989Z,27.63
2022-09-12T04:16:11.386Z,27.85
2022-09-12T04:18:38.330Z,32.25
2022-09-12T04:21:05.908Z,30.70
2022-09-12T04:23:33.085Z,30.75
2022-09-12T04:26:02.292Z,28.65
2022-09-12T04:28:29.767Z,29.38
2022-09-12T04:30:56.836Z,31.45
2022-09-12T04:33:23.641Z,30.23
2022-09-12T04:35:50.402Z,32.47
2022-09-12T04:38:17.046Z,28.88
2022-09-12T04:40:43.734Z,31.10
2022-09-12T04:43:14.557Z,34.00
2022-09-12T04:45:41.488Z,28.98
2022-09-12T04:48:08.234Z,26.60
2022-09-12T04:50:34.904Z,31.48
2022-09-12T04:53:01.692Z,29.90
2022-09-12T04:55:28.814Z,33.05
2022-09-12T04:57:55.451Z,31.10
2022-09-12T05:00:23.826Z,34.35
2022-09-12T05:02:50.521Z,30.10
2022-09-12T05:05:17.531Z,33.08
2022-09-12T05:07:44.283Z,33.65
2022-09-12T05:10:12.637Z,31.05
2022-09-12T05:12:39.649Z,28.58
2022-09-12T05:15:07.794Z,32.10
2022-09-12T05:17:35.835Z,31.88
2022-09-12T05:20:03.264Z,33.22
2022-09-12T05:22:30.334Z,34.05
2022-09-12T05:24:57.035Z,33.55
2022-09-12T05:27:23.729Z,37.00
2022-09-12T05:29:50.423Z,32.53
2022-09-12T05:32:17.169Z,30.80
2022-09-12T05:34:45.345Z,31.38
2022-09-12T05:37:13.055Z,34.15
2022-09-12T05:39:39.824Z,34.30
2022-09-12T05:42:06.638Z,35.08
2022-09-12T05:44:33.457Z,36.80
2022-09-12T05:47:00.145Z,36.67
2022-09-12T05:49:26.970Z,36.90
2022-09-12T05:51:55.067Z,33.42
2022-09-12T05:54:22.845Z,33.38
2022-09-12T05:56:49.582Z,35.00
2022-09-12T05:59:18.341Z,33.10
2022-09-12T06:01:45.677Z,31.77
2022-09-12T06:04:12.395Z,37.13
2022-09-12T06:06:41.822Z,29.95
2022-09-12T06:09:10.099Z,36.00
2022-09-12T06:11:40.258Z,32.92
2022-09-12T06:14:08.492Z,32.38
2022-09-12T06:16:35.349Z,33.78
2022-09-12T06:19:04.134Z,33.67
2022-09-12T06:21:35.262Z,34.42
2022-09-12T06:24:02.571Z,35.60
2022-09-12T06:26:30.906Z,34.13
2022-09-12T06:29:00.681Z,38.35
2022-09-12T06:31:29.321Z,34.65
2022-09-12T06:33:57.162Z,38.72
2022-09-12T06:36:25.577Z,34.72
2022-09-12T06:38:57.145Z,32.58
2022-09-12T06:41:24.389Z,37.65
2022-09-12T06:43:53.006Z,36.65
2022-09-12T06:46:20.265Z,33.13
2022-09-12T06:48:47.225Z,38.20
2022-09-12T06:51:15.570Z,36.95
2022-09-12T06:53:42.544Z,38.15
2022-09-12T06:56:11.538Z,39.63
2022-09-12T06:58:38.480Z,35.55
2022-09-12T07:01:08.308Z,43.67
2022-09-12T07:03:35.777Z,40.83
2022-09-12T07:06:04.125Z,34.38
2022-09-12T07:08:31.697Z,36.80
2022-09-12T07:10:59.155Z,33.33
2022-09-12T07:13:25.929Z,36.13
2022-09-12T07:15:52.646Z,32.80
2022-09-12T07:18:21.044Z,33.28
2022-09-12T07:20:47.723Z,43.97
2022-09-12T07:23:14.947Z,31.20
2022-09-12T07:25:41.911Z,35.88
2022-09-12T07:28:08.591Z,34.75
2022-09-12T07:30:37.262Z,28.90
2022-09-12T07:33:03.936Z,32.13
2022-09-12T07:35:34.225Z,27.42
2022-09-12T07:38:01.278Z,30.25
2022-09-12T07:40:28.013Z,29.15
2022-09-12T07:42:54.739Z,27.92
2022-09-12T07:45:21.381Z,29.55
2022-09-12T07:47:48.082Z,27.02
2022-09-12T07:50:14.871Z,26.15
2022-09-12T07:52:42.931Z,26.75
2022-09-12T07:55:09.758Z,26.70
2022-09-12T07:57:36.448Z,30.08
2022-09-12T08:00:05.600Z,30.67
2022-09-12T08:02:32.402Z,29.75
2022-09-12T08:04:59.426Z,28.42
2022-09-12T08:07:26.215Z,22.52
2022-09-12T08:09:54.418Z,25.60
2022-09-12T08:12:21.122Z,21.90
2022-09-12T08:14:48.314Z,23.38
2022-09-12T08:17:15.022Z,19.83
2022-09-12T08:19:41.907Z,22.35
2022-09-12T08:22:08.741Z,21.25
2022-09-12T08:24:35.550Z,20.52
2022-09-12T08:27:03.648Z,21.48
2022-09-12T08:29:30.378Z,20.65
2022-09-12T08:31:57.488Z,19.88
2022-09-12T08:34:24.849Z,19.65
2022-09-12T08:36:54.197Z,19.73
2022-09-12T08:39:21.833Z,18.05
2022-09-12T08:41:49.610Z,17.20
2022-09-12T08:44:37.716Z,19.00
2022-09-12T08:47:15.717Z,15.82
2022-09-12T08:49:51.500Z,16.38
2022-09-12T08:52:22.446Z,13.80
2022-09-12T08:54:50.081Z,14.20
2022-09-12T08:57:17.327Z,14.77
2022-09-12T08:59:46.573Z,16.48
2022-09-12T09:02:30.379Z,16.13
2022-09-12T09:05:01.605Z,15.10
2022-09-12T09:07:51.388Z,14.98
2022-09-12T09:10:21.955Z,12.35
2022-09-12T09:12:53.615Z,14.13
2022-09-12T09:15:33.766Z,13.43
2022-09-12T09:18:04.192Z,14.55
2022-09-12T09:20:34.245Z,11.40
2022-09-12T09:23:04.088Z,12.52
2022-09-12T09:25:40.079Z,14.50
2022-09-12T09:28:10.870Z,12.88
2022-09-12T09:30:39.764Z,14.45
2022-09-12T09:33:06.801Z,12.73
2022-09-12T09:35:40.486Z,10.23
2022-09-12T09:38:17.208Z,7.75
2022-09-12T09:40:48.715Z,6.68
2022-09-12T09:43:20.647Z,8.80
2022-09-12T09:45:49.527Z,10.45
2022-09-12T09:48:19.402Z,9.02
2022-09-12T09:50:48.013Z,9.52
2022-09-12T09:53:25.748Z,9.95
2022-09-12T09:55:54.160Z,9.80
2022-09-12T09:58:31.596Z,6.38
2022-09-12T10:01:03.971Z,7.05
2022-09-12T10:03:33.150Z,5.75
2022-09-12T10:06:02.258Z,7.35
2022-09-12T10:08:30.533Z,5.63
2022-09-12T10:11:00.438Z,8.63
2022-09-12T10:13:38.691Z,6.47
2022-09-12T10:16:18.910Z,5.10
2022-09-12T10:18:45.909Z,6.88
2022-09-12T10:21:23.629Z,4.95
2022-09-12T10:23:53.540Z,4.63
2022-09-12T10:26:21.784Z,6.47
2022-09-12T10:28:51.666Z,6.68
2022-09-12T10:31:29.188Z,6.38
2022-09-12T10:33:57.632Z,6.82
2022-09-12T10:36:24.949Z,7.25
2022-09-12T10:38:55.781Z,6.57
2022-09-12T10:41:22.652Z,5.20
2022-09-12T10:43:49.917Z,6.78
2022-09-12T10:46:29.406Z,6.20
2022-09-12T10:49:18.071Z,4.47
2022-09-12T10:51:44.868Z,4.45
2022-09-12T10:54:13.213Z,6.93
2022-09-12T10:56:44.301Z,6.88
2022-09-12T10:59:20.359Z,4.50
2022-09-12T11:01:49.995Z,5.07
2022-09-12T11:04:24.918Z,6.50
2022-09-12T11:07:01.742Z,6.78
2022-09-12T11:09:32.776Z,8.02
2022-09-12T11:12:06.122Z,8.38
2022-09-12T11:14:42.060Z,4.97
2022-09-12T11:17:18.773Z,4.68
2022-09-12T11:19:56.189Z,7.97
2022-09-12T11:22:35.425Z,3.65
2022-09-12T11:25:13.064Z,3.58
2022-09-12T11:28:00.746Z,5.00
2022-09-12T11:30:34.182Z,3.50
2022-09-12T11:33:10.990Z,5.10
2022-09-12T11:35:44.614Z,6.22
2022-09-12T11:38:28.974Z,3.95
2022-09-12T11:41:00.437Z,4.80
2022-09-12T11:43:33.403Z,4.45
2022-09-12T11:46:07.804Z,9.50
2022-09-12T11:48:44.859Z,5.60
2022-09-12T11:51:18.418Z,5.63
2022-09-12T11:53:48.844Z,4.40
2022-09-12T11:56:17.914Z,4.20
2022-09-12T11:58:49.315Z,4.15
2022-09-12T12:01:20.904Z,4.40
2022-09-12T12:03:49.717Z,7.15
2022-09-12T12:06:20.942Z,5.03
2022-09-12T12:08:48.945Z,5.18
2022-09-12T12:11:24.141Z,4.15
2022-09-12T12:16:21.376Z,3.63
2022-09-12T12:18:54.310Z,3.17
2022-09-12T12:21:32.557Z,3.08
2022-09-12T12:24:09.977Z,3.20
2022-09-12T12:26:58.329Z,3.25
2022-09-12T12:29:43.535Z,3.90
2022-09-12T12:32:24.661Z,3.95
2022-09-12T12:35:02.466Z,3.67
2022-09-12T12:37:55.908Z,3.70
2022-09-12T12:40:26.749Z,6.10
2022-09-12T12:43:26.839Z,6.00
2022-09-12T12:46:12.392Z,4.70
2022-09-12T12:49:07.732Z,3.20
2022-09-12T12:51:45.921Z,4.00
2022-09-12T12:54:53.077Z,2.97
2022-09-12T12:57:48.753Z,5.97
2022-09-12T13:00:29.852Z,3.80
2022-09-12T13:02:59.747Z,3.42
2022-09-12T13:05:27.882Z,3.78
2022-09-12T13:07:57.887Z,4.10
2022-09-12T13:10:28.862Z,2.72
2022-09-12T13:12:56.706Z,3.70
2022-09-12T13:15:47.230Z,6.93
2022-09-12T13:18:18.473Z,3.35
2022-09-12T13:20:47.603Z,2.25
2022-09-12T13:23:23.988Z,3.78
2022-09-12T13:25:55.174Z,4.32
2022-09-12T13:28:21.891Z,2.70
2022-09-12T13:30:56.472Z,2.10
2022-09-12T13:33:33.329Z,2.72
2022-09-12T13:36:25.722Z,2.33
2022-09-12T13:39:02.972Z,2.28
2022-09-12T13:41:39.640Z,2.63
2022-09-12T13:44:09.841Z,1.60
2022-09-12T13:46:36.819Z,2.50
2022-09-12T13:49:09.596Z,2.22
2022-09-12T13:51:36.398Z,3.45
2022-09-12T13:54:05.076Z,3.45
2022-09-12T13:56:31.829Z,1.50
2022-09-12T13:59:00.405Z,2.28
2022-09-12T14:01:38.724Z,1.98
2022-09-12T14:04:33.733Z,1.77
2022-09-12T14:07:02.655Z,4.43
2022-09-12T14:09:34.955Z,2.17
2022-09-12T14:12:03.163Z,2.22
2022-09-12T14:14:36.089Z,1.20
2022-09-12T14:17:16.330Z,1.20
2022-09-12T14:19:43.472Z,2.58
2022-09-12T14:22:17.999Z,2.30
2022-09-12T14:24:50.122Z,1.40
2022-09-12T14:27:18.800Z,1.63
2022-09-12T14:29:45.775Z,2.95
2022-09-12T14:32:21.459Z,2.92
2022-09-12T14:35:07.073Z,2.22
2022-09-12T14:37:33.811Z,1.35
2022-09-12T14:40:02.776Z,1.50
2022-09-12T14:42:31.393Z,2.67
2022-09-12T14:45:00.731Z,1.13
2022-09-12T14:47:30.256Z,1.75
2022-09-12T14:49:56.986Z,1.10
2022-09-12T14:52:26.373Z,1.85
2022-09-12T14:54:56.930Z,1.92
2022-09-12T14:57:39.031Z,1.20
2022-09-12T15:00:14.709Z,1.27
2022-09-12T15:02:41.895Z,1.52
2022-09-12T15:05:24.547Z,2.33
2022-09-12T15:07:54.386Z,1.98
2022-09-12T15:10:25.226Z,1.75
2022-09-12T15:13:14.155Z,1.25
2022-09-12T15:15:42.435Z,1.95
2022-09-12T15:18:09.656Z,1.92
2022-09-12T15:20:37.879Z,1.30
2022-09-12T15:23:05.082Z,1.60
2022-09-12T15:25:32.319Z,2.35
2022-09-12T15:27:59.073Z,0.93
2022-09-12T15:30:27.128Z,1.60
2022-09-12T15:32:54.954Z,5.50
2022-09-12T15:35:23.681Z,2.47
2022-09-12T15:37:50.486Z,2.13
2022-09-12T15:40:17.904Z,1.65
2022-09-12T15:43:03.342Z,3.03
2022-09-12T15:46:31.027Z,1.15
2022-09-12T15:49:56.286Z,1.13
2022-09-12T15:53:21.483Z,1.70
2022-09-12T15:56:46.933Z,1.40
2022-09-12T16:00:12.671Z,2.28
2022-09-12T16:03:39.236Z,1.45
2022-09-12T16:07:04.909Z,1.20
2022-09-12T16:10:30.433Z,1.15
2022-09-12T16:13:56.877Z,1.20
2022-09-12T16:17:22.119Z,2.30
2022-09-12T16:20:51.652Z,6.72
2022-09-12T16:24:16.887Z,1.50
2022-09-12T16:27:42.207Z,1.35
2022-09-12T16:31:08.729Z,2.90
2022-09-12T16:34:33.977Z,5.43
2022-09-12T16:38:00.849Z,2.20
2022-09-12T16:41:26.397Z,2.28
2022-09-12T16:44:53.295Z,2.40
2022-09-12T16:48:18.498Z,2.38
2022-09-12T16:51:47.474Z,1.30
2022-09-12T16:55:14.458Z,1.40
2022-09-12T16:58:42.071Z,2.78
2022-09-12T17:02:09.857Z,3.03
2022-09-12T17:05:35.346Z,1.60
2022-09-12T17:09:01.336Z,1.45
2022-09-12T17:12:29.114Z,1.50
2022-09-12T17:15:54.438Z,1.42
2022-09-12T17:19:20.466Z,1.40
2022-09-12T17:22:45.743Z,3.53
2022-09-12T17:26:11.190Z,1.48
2022-09-12T17:29:38.745Z,1.83
2022-09-12T17:33:03.995Z,1.50
2022-09-12T17:36:32.304Z,1.25
2022-09-12T17:39:57.813Z,1.20
2022-09-12T17:43:23.096Z,2.85
2022-09-12T17:46:55.054Z,1.65
2022-09-12T17:50:32.448Z,1.98
2022-09-12T17:53:59.779Z,1.80
2022-09-12T17:57:25.572Z,1.30
2022-09-12T18:01:09.388Z,1.77
2022-09-12T18:04:36.046Z,2.30
2022-09-12T18:08:01.653Z,1.27
2022-09-12T18:11:26.993Z,2.10
2022-09-12T18:14:52.231Z,3.38
2022-09-12T18:18:17.460Z,2.45
2022-09-12T18:21:49.740Z,4.55
2022-09-12T18:25:15.094Z,1.50
2022-09-12T18:28:41.156Z,3.45
2022-09-12T18:32:09.295Z,1.80
2022-09-12T18:35:34.510Z,3.63
2022-09-12T18:39:01.114Z,5.13
2022-09-12T18:42:26.359Z,2.90
2022-09-12T18:45:51.657Z,2.15
2022-09-12T18:49:16.871Z,3.72
2022-09-12T18:52:42.110Z,2.60
2022-09-12T18:56:09.601Z,3.20
2022-09-12T18:59:34.857Z,3.63
2022-09-12T19:03:00.537Z,4.03
2022-09-12T19:06:27.819Z,4.03
2022-09-12T19:13:19.706Z,4.20
2022-09-12T19:16:44.955Z,5.95
2022-09-12T19:20:10.684Z,3.38
2022-09-12T19:23:36.390Z,2.70
2022-09-12T19:27:02.609Z,3.88
2022-09-12T19:30:29.314Z,4.13
2022-09-12T19:33:58.486Z,4.03
2022-09-12T19:37:24.174Z,3.97
2022-09-12T19:40:55.783Z,3.80
2022-09-12T19:44:21.010Z,4.35
2022-09-12T19:47:47.563Z,3.92
2022-09-12T19:51:12.953Z,4.15
2022-09-12T19:54:38.949Z,5.47
2022-09-12T19:58:06.005Z,4.85
2022-09-12T20:01:31.581Z,3.85
2022-09-12T20:04:58.336Z,4.50
2022-09-12T20:08:23.596Z,4.50
2022-09-12T20:11:49.398Z,4.72
2022-09-12T20:15:14.636Z,3.30
2022-09-12T20:18:39.897Z,3.28
2022-09-12T20:22:10.701Z,4.00
2022-09-12T20:25:35.916Z,3.63
2022-09-12T20:29:01.358Z,4.75
2022-09-12T20:32:28.943Z,3.45
2022-09-12T20:35:54.101Z,4.82
2022-09-12T20:39:21.522Z,4.88
2022-09-12T20:42:46.982Z,7.28
2022-09-12T20:46:12.295Z,4.45
2022-09-12T20:49:37.643Z,4.15
2022-09-12T20:53:03.045Z,7.03
2022-09-12T20:56:29.871Z,5.60
2022-09-12T20:59:55.109Z,7.03
2022-09-12T21:03:20.297Z,5.25
2022-09-12T21:06:45.536Z,3.83
2022-09-12T21:10:10.823Z,3.85
2022-09-12T21:13:37.656Z,4.72
2022-09-12T21:17:05.293Z,7.30
2022-09-12T21:20:30.478Z,4.55
2022-09-12T21:23:57.776Z,4.32
2022-09-12T21:30:50.006Z,5.40
2022-09-12T21:34:15.932Z,5.03
2022-09-12T21:37:41.338Z,3.70
2022-09-12T21:41:07.594Z,4.25
2022-09-12T21:44:32.894Z,4.53
2022-09-12T21:47:59.477Z,5.10
2022-09-12T21:51:24.808Z,9.65
2022-09-12T21:54:50.000Z,3.58
2022-09-12T21:58:15.213Z,4.05
2022-09-12T22:01:40.734Z,5.50
2022-09-12T22:05:07.927Z,5.22
2022-09-12T22:08:33.560Z,5.95
2022-09-12T22:11:59.234Z,7.03
2022-09-12T22:15:41.394Z,4.82
2022-09-12T22:19:08.501Z,5.35
2022-09-12T22:22:53.345Z,4.88
2022-09-12T22:26:18.593Z,5.50
2022-09-12T22:29:46.514Z,8.82
2022-09-12T22:33:11.698Z,4.97
2022-09-12T22:36:39.137Z,6.35
2022-09-12T22:40:05.335Z,8.65
2022-09-12T22:43:31.457Z,6.80
2022-09-12T22:46:57.005Z,5.40
2022-09-12T22:50:22.695Z,6.78
2022-09-12T22:53:51.494Z,5.35
2022-09-12T22:57:16.763Z,6.50
2022-09-12T23:00:45.811Z,7.40
2022-09-12T23:04:11.028Z,7.80
2022-09-12T23:07:36.331Z,8.05
2022-09-12T23:11:04.519Z,7.40
2022-09-12T23:14:29.837Z,9.43
2022-09-12T23:17:55.038Z,10.35
2022-09-12T23:21:20.704Z,8.50
2022-09-12T23:24:45.988Z,9.63
2022-09-12T23:28:14.624Z,9.55
2022-09-12T23:31:39.907Z,9.90
2022-09-12T23:35:05.631Z,11.88
2022-09-12T23:38:30.895Z,13.20
2022-09-12T23:41:56.247Z,10.77
2022-09-12T23:45:22.841Z,13.18
2022-09-12T23:48:48.356Z,9.93
2022-09-12T23:52:13.663Z,15.82
2022-09-12T23:55:39.043Z,13.35
2022-09-12T23:59:04.254Z,10.43
